Aviation Digital Data Service (ADDS)

Output produced by METARs form (0246 UTC 26 April 2015)
found at http://www.aviationweather.gov/adds/metars/
 
KORD 260156Z 2602/2706 03011KT P6SM OVC070 
     FM260500 02009KT P6SM SKC 
     FM261400 02011KT P6SM SKC 
     FM261700 04013G20KT P6SM SKC 
     FM270200 03009KT P6SM SKC